sensor_id;sensor_type;location;lat;lon;timestamp;pressure;altitude;pressure_sealevel;temperature
42119;BMP280;27783;42.782;23.274;2023-04-03T00:00:53;94893.41;;;4.42
42119;BMP280;27783;42.782;23.274;2023-04-03T00:03:19;94892.38;;;4.49
42119;BMP280;27783;42.782;23.274;2023-04-03T00:05:46;94889.25;;;4.34
42119;BMP280;27783;42.782;23.274;2023-04-03T00:08:11;94889.91;;;4.28
42119;BMP280;27783;42.782;23.274;2023-04-03T00:10:41;94886.22;;;4.32
42119;BMP280;27783;42.782;23.274;2023-04-03T00:13:07;94895.09;;;4.24
42119;BMP280;27783;42.782;23.274;2023-04-03T00:15:34;94889.59;;;4.32
42119;BMP280;27783;42.782;23.274;2023-04-03T00:18:00;94891.69;;;4.20
42119;BMP280;27783;42.782;23.274;2023-04-03T00:20:27;94885.59;;;4.10
42119;BMP280;27783;42.782;23.274;2023-04-03T00:22:55;94897.84;;;4.06
42119;BMP280;27783;42.782;23.274;2023-04-03T00:25:21;94898.97;;;4.08
42119;BMP280;27783;42.782;23.274;2023-04-03T00:27:47;94881.56;;;4.15
42119;BMP280;27783;42.782;23.274;2023-04-03T00:30:16;94883.22;;;4.30
42119;BMP280;27783;42.782;23.274;2023-04-03T00:32:42;94876.56;;;4.36
42119;BMP280;27783;42.782;23.274;2023-04-03T00:35:10;94893.84;;;4.15
42119;BMP280;27783;42.782;23.274;2023-04-03T00:37:36;94895.78;;;3.61
42119;BMP280;27783;42.782;23.274;2023-04-03T00:40:03;94898.31;;;3.29
42119;BMP280;27783;42.782;23.274;2023-04-03T00:42:31;94907.00;;;3.39
42119;BMP280;27783;42.782;23.274;2023-04-03T00:47:26;94906.47;;;3.27
42119;BMP280;27783;42.782;23.274;2023-04-03T00:49:54;94908.53;;;3.40
42119;BMP280;27783;42.782;23.274;2023-04-03T00:52:24;94901.91;;;3.46
42119;BMP280;27783;42.782;23.274;2023-04-03T00:54:52;94894.75;;;3.40
42119;BMP280;27783;42.782;23.274;2023-04-03T00:57:21;94902.47;;;3.58
42119;BMP280;27783;42.782;23.274;2023-04-03T00:59:59;94902.56;;;3.65
42119;BMP280;27783;42.782;23.274;2023-04-03T01:02:29;94910.50;;;3.75
42119;BMP280;27783;42.782;23.274;2023-04-03T01:04:56;94905.56;;;3.67
42119;BMP280;27783;42.782;23.274;2023-04-03T01:07:28;94910.94;;;3.81
42119;BMP280;27783;42.782;23.274;2023-04-03T01:09:57;94911.16;;;3.69
42119;BMP280;27783;42.782;23.274;2023-04-03T01:12:24;94917.25;;;3.51
42119;BMP280;27783;42.782;23.274;2023-04-03T01:14:54;94911.97;;;3.48
42119;BMP280;27783;42.782;23.274;2023-04-03T01:17:38;94907.91;;;3.75
42119;BMP280;27783;42.782;23.274;2023-04-03T01:25:54;94903.13;;;3.81
42119;BMP280;27783;42.782;23.274;2023-04-03T01:33:46;94905.59;;;3.70
42119;BMP280;27783;42.782;23.274;2023-04-03T01:36:32;94911.66;;;3.78
42119;BMP280;27783;42.782;23.274;2023-04-03T01:38:59;94910.75;;;3.67
42119;BMP280;27783;42.782;23.274;2023-04-03T01:41:46;94905.63;;;3.20
42119;BMP280;27783;42.782;23.274;2023-04-03T01:44:13;94914.69;;;2.82
42119;BMP280;27783;42.782;23.274;2023-04-03T01:46:40;94915.28;;;2.72
42119;BMP280;27783;42.782;23.274;2023-04-03T01:49:09;94915.44;;;2.83
42119;BMP280;27783;42.782;23.274;2023-04-03T01:51:35;94916.88;;;2.80
42119;BMP280;27783;42.782;23.274;2023-04-03T01:54:01;94906.75;;;2.97
42119;BMP280;27783;42.782;23.274;2023-04-03T01:56:29;94906.81;;;3.00
42119;BMP280;27783;42.782;23.274;2023-04-03T01:58:56;94905.75;;;2.80
42119;BMP280;27783;42.782;23.274;2023-04-03T02:01:22;94910.41;;;2.71
42119;BMP280;27783;42.782;23.274;2023-04-03T02:03:49;94899.84;;;2.83
42119;BMP280;27783;42.782;23.274;2023-04-03T02:06:19;94911.09;;;2.90
42119;BMP280;27783;42.782;23.274;2023-04-03T02:08:45;94913.22;;;2.84
42119;BMP280;27783;42.782;23.274;2023-04-03T02:11:11;94903.19;;;2.83
42119;BMP280;27783;42.782;23.274;2023-04-03T02:13:38;94906.25;;;2.66
42119;BMP280;27783;42.782;23.274;2023-04-03T02:16:09;94902.31;;;2.76
42119;BMP280;27783;42.782;23.274;2023-04-03T02:18:37;94899.91;;;2.86
42119;BMP280;27783;42.782;23.274;2023-04-03T02:21:06;94915.34;;;2.76
42119;BMP280;27783;42.782;23.274;2023-04-03T02:23:32;94895.72;;;2.82
42119;BMP280;27783;42.782;23.274;2023-04-03T02:26:09;94894.03;;;2.92
42119;BMP280;27783;42.782;23.274;2023-04-03T02:28:36;94886.94;;;2.89
42119;BMP280;27783;42.782;23.274;2023-04-03T02:31:07;94884.94;;;2.80
42119;BMP280;27783;42.782;23.274;2023-04-03T02:33:34;94883.38;;;2.53
42119;BMP280;27783;42.782;23.274;2023-04-03T02:36:05;94878.25;;;2.38
42119;BMP280;27783;42.782;23.274;2023-04-03T02:38:32;94876.91;;;2.04
42119;BMP280;27783;42.782;23.274;2023-04-03T02:41:03;94886.25;;;1.90
42119;BMP280;27783;42.782;23.274;2023-04-03T02:43:30;94878.69;;;2.00
42119;BMP280;27783;42.782;23.274;2023-04-03T02:45:58;94875.97;;;2.33
42119;BMP280;27783;42.782;23.274;2023-04-03T02:48:26;94880.72;;;2.50
42119;BMP280;27783;42.782;23.274;2023-04-03T02:50:53;94879.38;;;2.59
42119;BMP280;27783;42.782;23.274;2023-04-03T02:53:20;94888.78;;;2.45
42119;BMP280;27783;42.782;23.274;2023-04-03T02:55:45;94881.31;;;2.44
42119;BMP280;27783;42.782;23.274;2023-04-03T02:58:15;94869.09;;;2.66
42119;BMP280;27783;42.782;23.274;2023-04-03T03:00:40;94884.28;;;2.64
42119;BMP280;27783;42.782;23.274;2023-04-03T03:03:15;94877.13;;;2.17
42119;BMP280;27783;42.782;23.274;2023-04-03T03:05:42;94874.53;;;2.17
42119;BMP280;27783;42.782;23.274;2023-04-03T03:08:08;94887.94;;;2.19
42119;BMP280;27783;42.782;23.274;2023-04-03T03:10:34;94880.53;;;2.21
42119;BMP280;27783;42.782;23.274;2023-04-03T03:13:02;94880.22;;;2.23
42119;BMP280;27783;42.782;23.274;2023-04-03T03:15:29;94879.44;;;2.00
42119;BMP280;27783;42.782;23.274;2023-04-03T03:17:54;94876.56;;;2.27
42119;BMP280;27783;42.782;23.274;2023-04-03T03:20:22;94884.91;;;2.36
42119;BMP280;27783;42.782;23.274;2023-04-03T03:22:48;94881.47;;;2.10
42119;BMP280;27783;42.782;23.274;2023-04-03T03:25:15;94870.19;;;2.03
42119;BMP280;27783;42.782;23.274;2023-04-03T03:27:41;94873.53;;;2.03
42119;BMP280;27783;42.782;23.274;2023-04-03T03:30:09;94876.34;;;1.95
42119;BMP280;27783;42.782;23.274;2023-04-03T03:32:35;94874.91;;;1.98
42119;BMP280;27783;42.782;23.274;2023-04-03T03:35:01;94885.09;;;2.06
42119;BMP280;27783;42.782;23.274;2023-04-03T03:37:27;94874.38;;;2.29
42119;BMP280;27783;42.782;23.274;2023-04-03T03:39:53;94884.34;;;2.27
42119;BMP280;27783;42.782;23.274;2023-04-03T03:42:19;94887.09;;;2.34
42119;BMP280;27783;42.782;23.274;2023-04-03T03:44:46;94880.84;;;2.16
42119;BMP280;27783;42.782;23.274;2023-04-03T03:47:12;94882.44;;;2.24
42119;BMP280;27783;42.782;23.274;2023-04-03T03:49:38;94882.09;;;2.04
42119;BMP280;27783;42.782;23.274;2023-04-03T03:52:05;94884.72;;;2.26
42119;BMP280;27783;42.782;23.274;2023-04-03T03:54:33;94886.44;;;2.37
42119;BMP280;27783;42.782;23.274;2023-04-03T03:56:59;94885.47;;;2.26
42119;BMP280;27783;42.782;23.274;2023-04-03T03:59:25;94889.03;;;2.18
42119;BMP280;27783;42.782;23.274;2023-04-03T04:01:52;94882.81;;;2.23
42119;BMP280;27783;42.782;23.274;2023-04-03T04:04:20;94887.53;;;2.17
42119;BMP280;27783;42.782;23.274;2023-04-03T04:06:47;94883.84;;;2.18
42119;BMP280;27783;42.782;23.274;2023-04-03T04:09:13;94887.50;;;2.36
42119;BMP280;27783;42.782;23.274;2023-04-03T04:11:39;94880.53;;;2.40
42119;BMP280;27783;42.782;23.274;2023-04-03T04:14:08;94876.56;;;2.27
42119;BMP280;27783;42.782;23.274;2023-04-03T04:16:38;94871.44;;;2.31
42119;BMP280;27783;42.782;23.274;2023-04-03T04:19:03;94879.41;;;2.41
42119;BMP280;27783;42.782;23.274;2023-04-03T04:21:28;94882.31;;;2.36
42119;BMP280;27783;42.782;23.274;2023-04-03T04:23:56;94880.97;;;2.23
42119;BMP280;27783;42.782;23.274;2023-04-03T04:26:21;94892.84;;;2.43
42119;BMP280;27783;42.782;23.274;2023-04-03T04:28:47;94902.41;;;2.39
42119;BMP280;27783;42.782;23.274;2023-04-03T04:31:12;94908.63;;;2.53
42119;BMP280;27783;42.782;23.274;2023-04-03T04:33:38;94914.56;;;2.53
42119;BMP280;27783;42.782;23.274;2023-04-03T04:36:03;94909.88;;;2.62
42119;BMP280;27783;42.782;23.274;2023-04-03T04:38:28;94901.56;;;2.53
42119;BMP280;27783;42.782;23.274;2023-04-03T04:40:54;94908.84;;;2.66
42119;BMP280;27783;42.782;23.274;2023-04-03T04:43:20;94909.19;;;2.65
42119;BMP280;27783;42.782;23.274;2023-04-03T04:45:45;94922.63;;;2.08
42119;BMP280;27783;42.782;23.274;2023-04-03T04:48:10;94917.28;;;1.65
42119;BMP280;27783;42.782;23.274;2023-04-03T04:50:36;94919.94;;;1.68
42119;BMP280;27783;42.782;23.274;2023-04-03T04:53:01;94923.59;;;2.00
42119;BMP280;27783;42.782;23.274;2023-04-03T04:55:26;94933.84;;;2.12
42119;BMP280;27783;42.782;23.274;2023-04-03T04:57:52;94935.88;;;2.22
42119;BMP280;27783;42.782;23.274;2023-04-03T05:00:17;94946.38;;;2.07
42119;BMP280;27783;42.782;23.274;2023-04-03T05:02:43;94944.16;;;2.27
42119;BMP280;27783;42.782;23.274;2023-04-03T05:05:08;94953.88;;;2.30
42119;BMP280;27783;42.782;23.274;2023-04-03T05:07:34;94945.41;;;2.33
42119;BMP280;27783;42.782;23.274;2023-04-03T05:10:02;94945.09;;;2.56
42119;BMP280;27783;42.782;23.274;2023-04-03T05:12:27;94943.69;;;2.84
42119;BMP280;27783;42.782;23.274;2023-04-03T05:14:53;94946.38;;;2.87
42119;BMP280;27783;42.782;23.274;2023-04-03T05:17:18;94934.78;;;3.07
42119;BMP280;27783;42.782;23.274;2023-04-03T05:19:44;94941.31;;;3.19
42119;BMP280;27783;42.782;23.274;2023-04-03T05:22:09;94945.47;;;3.24
42119;BMP280;27783;42.782;23.274;2023-04-03T05:24:35;94952.09;;;3.43
42119;BMP280;27783;42.782;23.274;2023-04-03T05:27:01;94951.50;;;3.53
42119;BMP280;27783;42.782;23.274;2023-04-03T05:29:26;94963.84;;;3.59
42119;BMP280;27783;42.782;23.274;2023-04-03T05:31:52;94962.72;;;3.57
42119;BMP280;27783;42.782;23.274;2023-04-03T05:34:18;94952.28;;;3.82
42119;BMP280;27783;42.782;23.274;2023-04-03T05:36:43;94952.81;;;3.94
42119;BMP280;27783;42.782;23.274;2023-04-03T05:39:09;94955.56;;;4.04
42119;BMP280;27783;42.782;23.274;2023-04-03T05:41:34;94955.78;;;4.21
42119;BMP280;27783;42.782;23.274;2023-04-03T05:44:00;94954.09;;;4.07
42119;BMP280;27783;42.782;23.274;2023-04-03T05:46:25;94949.66;;;4.39
42119;BMP280;27783;42.782;23.274;2023-04-03T05:48:51;94943.69;;;4.39
42119;BMP280;27783;42.782;23.274;2023-04-03T05:51:23;94948.25;;;4.48
42119;BMP280;27783;42.782;23.274;2023-04-03T05:53:53;94946.19;;;4.32
42119;BMP280;27783;42.782;23.274;2023-04-03T05:56:20;94943.03;;;4.48
42119;BMP280;27783;42.782;23.274;2023-04-03T05:58:45;94931.97;;;4.58
42119;BMP280;27783;42.782;23.274;2023-04-03T06:01:11;94940.50;;;4.55
42119;BMP280;27783;42.782;23.274;2023-04-03T06:03:36;94952.19;;;4.68
42119;BMP280;27783;42.782;23.274;2023-04-03T06:06:03;94941.00;;;4.67
42119;BMP280;27783;42.782;23.274;2023-04-03T06:08:29;94947.44;;;5.15
42119;BMP280;27783;42.782;23.274;2023-04-03T06:10:54;94941.31;;;5.01
42119;BMP280;27783;42.782;23.274;2023-04-03T06:13:21;94937.22;;;4.97
42119;BMP280;27783;42.782;23.274;2023-04-03T06:15:47;94937.66;;;5.06
42119;BMP280;27783;42.782;23.274;2023-04-03T06:18:13;94916.97;;;5.33
42119;BMP280;27783;42.782;23.274;2023-04-03T06:20:38;94906.47;;;5.26
42119;BMP280;27783;42.782;23.274;2023-04-03T06:23:04;94901.38;;;5.47
42119;BMP280;27783;42.782;23.274;2023-04-03T06:25:29;94898.81;;;5.53
42119;BMP280;27783;42.782;23.274;2023-04-03T06:27:55;94896.00;;;5.79
42119;BMP280;27783;42.782;23.274;2023-04-03T06:30:23;94904.31;;;5.94
42119;BMP280;27783;42.782;23.274;2023-04-03T06:32:48;94897.94;;;5.92
42119;BMP280;27783;42.782;23.274;2023-04-03T06:35:13;94907.69;;;5.98
42119;BMP280;27783;42.782;23.274;2023-04-03T06:37:39;94921.06;;;5.86
42119;BMP280;27783;42.782;23.274;2023-04-03T06:40:05;94923.72;;;5.97
42119;BMP280;27783;42.782;23.274;2023-04-03T06:42:30;94924.19;;;6.19
42119;BMP280;27783;42.782;23.274;2023-04-03T06:44:56;94927.59;;;6.26
42119;BMP280;27783;42.782;23.274;2023-04-03T06:47:21;94925.75;;;6.30
42119;BMP280;27783;42.782;23.274;2023-04-03T06:49:47;94921.31;;;6.44
42119;BMP280;27783;42.782;23.274;2023-04-03T06:52:13;94913.53;;;6.68
42119;BMP280;27783;42.782;23.274;2023-04-03T06:54:39;94919.53;;;6.85
42119;BMP280;27783;42.782;23.274;2023-04-03T06:57:05;94916.91;;;6.85
42119;BMP280;27783;42.782;23.274;2023-04-03T06:59:30;94912.81;;;7.08
42119;BMP280;27783;42.782;23.274;2023-04-03T07:01:55;94918.47;;;7.27
42119;BMP280;27783;42.782;23.274;2023-04-03T07:04:21;94925.19;;;7.04
42119;BMP280;27783;42.782;23.274;2023-04-03T07:06:46;94915.84;;;7.31
42119;BMP280;27783;42.782;23.274;2023-04-03T07:09:13;94930.78;;;7.64
42119;BMP280;27783;42.782;23.274;2023-04-03T07:11:38;94931.53;;;7.65
42119;BMP280;27783;42.782;23.274;2023-04-03T07:14:04;94930.75;;;7.91
42119;BMP280;27783;42.782;23.274;2023-04-03T07:16:29;94930.06;;;7.50
42119;BMP280;27783;42.782;23.274;2023-04-03T07:18:58;94932.63;;;7.74
42119;BMP280;27783;42.782;23.274;2023-04-03T07:21:24;94920.25;;;7.91
42119;BMP280;27783;42.782;23.274;2023-04-03T07:23:50;94921.00;;;8.02
42119;BMP280;27783;42.782;23.274;2023-04-03T07:26:15;94907.06;;;8.25
42119;BMP280;27783;42.782;23.274;2023-04-03T07:28:41;94909.00;;;7.94
42119;BMP280;27783;42.782;23.274;2023-04-03T07:31:08;94909.25;;;8.37
42119;BMP280;27783;42.782;23.274;2023-04-03T07:33:37;94914.84;;;8.49
42119;BMP280;27783;42.782;23.274;2023-04-03T07:36:04;94908.25;;;8.87
42119;BMP280;27783;42.782;23.274;2023-04-03T07:38:30;94908.72;;;8.69
42119;BMP280;27783;42.782;23.274;2023-04-03T07:40:55;94910.50;;;8.85
42119;BMP280;27783;42.782;23.274;2023-04-03T07:43:21;94904.19;;;8.69
42119;BMP280;27783;42.782;23.274;2023-04-03T07:45:48;94901.47;;;8.86
42119;BMP280;27783;42.782;23.274;2023-04-03T07:48:17;94896.38;;;8.63
42119;BMP280;27783;42.782;23.274;2023-04-03T07:50:43;94893.72;;;9.22
42119;BMP280;27783;42.782;23.274;2023-04-03T07:53:08;94891.75;;;8.83
42119;BMP280;27783;42.782;23.274;2023-04-03T07:55:35;94879.41;;;8.77
42119;BMP280;27783;42.782;23.274;2023-04-03T07:58:08;94877.75;;;9.00
42119;BMP280;27783;42.782;23.274;2023-04-03T08:00:33;94873.94;;;9.08
42119;BMP280;27783;42.782;23.274;2023-04-03T08:02:59;94877.41;;;8.98
42119;BMP280;27783;42.782;23.274;2023-04-03T08:05:24;94865.28;;;9.93
42119;BMP280;27783;42.782;23.274;2023-04-03T08:07:50;94866.19;;;9.80
42119;BMP280;27783;42.782;23.274;2023-04-03T08:10:15;94849.72;;;9.69
42119;BMP280;27783;42.782;23.274;2023-04-03T08:12:41;94849.66;;;9.76
42119;BMP280;27783;42.782;23.274;2023-04-03T08:15:07;94853.25;;;10.53
42119;BMP280;27783;42.782;23.274;2023-04-03T08:17:33;94853.50;;;10.88
42119;BMP280;27783;42.782;23.274;2023-04-03T08:19:59;94840.28;;;10.66
42119;BMP280;27783;42.782;23.274;2023-04-03T08:22:25;94834.59;;;10.67
42119;BMP280;27783;42.782;23.274;2023-04-03T08:24:51;94837.22;;;11.18
42119;BMP280;27783;42.782;23.274;2023-04-03T08:27:16;94838.03;;;11.60
42119;BMP280;27783;42.782;23.274;2023-04-03T08:29:42;94840.84;;;11.50
42119;BMP280;27783;42.782;23.274;2023-04-03T08:32:07;94840.41;;;11.55
42119;BMP280;27783;42.782;23.274;2023-04-03T08:34:32;94839.84;;;11.44
42119;BMP280;27783;42.782;23.274;2023-04-03T08:37:03;94841.28;;;11.49
42119;BMP280;27783;42.782;23.274;2023-04-03T08:39:28;94831.00;;;11.54
42119;BMP280;27783;42.782;23.274;2023-04-03T08:41:57;94830.34;;;11.24
42119;BMP280;27783;42.782;23.274;2023-04-03T08:49:49;94830.44;;;12.22
42119;BMP280;27783;42.782;23.274;2023-04-03T08:52:38;94831.44;;;11.90
42119;BMP280;27783;42.782;23.274;2023-04-03T08:55:13;94833.38;;;11.67
42119;BMP280;27783;42.782;23.274;2023-04-03T08:57:42;94821.50;;;11.98
42119;BMP280;27783;42.782;23.274;2023-04-03T09:00:27;94807.44;;;12.38
42119;BMP280;27783;42.782;23.274;2023-04-03T09:02:55;94809.94;;;12.11
42119;BMP280;27783;42.782;23.274;2023-04-03T09:08:00;94809.72;;;12.55
42119;BMP280;27783;42.782;23.274;2023-04-03T09:10:32;94806.53;;;11.91
42119;BMP280;27783;42.782;23.274;2023-04-03T09:13:22;94806.84;;;11.55
42119;BMP280;27783;42.782;23.274;2023-04-03T09:15:48;94797.72;;;12.16
42119;BMP280;27783;42.782;23.274;2023-04-03T09:18:18;94799.69;;;12.13
42119;BMP280;27783;42.782;23.274;2023-04-03T09:26:11;94799.09;;;12.93
42119;BMP280;27783;42.782;23.274;2023-04-03T09:28:43;94787.00;;;13.08
42119;BMP280;27783;42.782;23.274;2023-04-03T09:31:18;94787.47;;;12.37
42119;BMP280;27783;42.782;23.274;2023-04-03T09:33:44;94782.84;;;12.07
42119;BMP280;27783;42.782;23.274;2023-04-03T09:36:10;94777.81;;;12.31
42119;BMP280;27783;42.782;23.274;2023-04-03T09:38:36;94771.69;;;12.34
42119;BMP280;27783;42.782;23.274;2023-04-03T09:43:30;94770.31;;;12.64
42119;BMP280;27783;42.782;23.274;2023-04-03T09:46:15;94767.44;;;12.55
42119;BMP280;27783;42.782;23.274;2023-04-03T09:48:50;94759.16;;;13.03
42119;BMP280;27783;42.782;23.274;2023-04-03T09:51:16;94763.53;;;12.63
42119;BMP280;27783;42.782;23.274;2023-04-03T09:53:44;94757.00;;;13.57
42119;BMP280;27783;42.782;23.274;2023-04-03T09:58:40;94748.63;;;12.53
42119;BMP280;27783;42.782;23.274;2023-04-03T10:01:31;94741.19;;;13.11
42119;BMP280;27783;42.782;23.274;2023-04-03T10:04:16;94740.06;;;12.96
42119;BMP280;27783;42.782;23.274;2023-04-03T10:06:49;94736.22;;;13.28
42119;BMP280;27783;42.782;23.274;2023-04-03T10:09:25;94737.56;;;13.05
42119;BMP280;27783;42.782;23.274;2023-04-03T10:14:29;94727.16;;;12.98
42119;BMP280;27783;42.782;23.274;2023-04-03T10:41:52;94704.47;;;13.28
42119;BMP280;27783;42.782;23.274;2023-04-03T10:47:50;94694.66;;;13.41
42119;BMP280;27783;42.782;23.274;2023-04-03T10:50:51;94686.03;;;13.25
42119;BMP280;27783;42.782;23.274;2023-04-03T11:01:48;94673.06;;;13.15
42119;BMP280;27783;42.782;23.274;2023-04-03T11:04:17;94672.66;;;13.16
42119;BMP280;27783;42.782;23.274;2023-04-03T11:07:10;94672.31;;;13.14
42119;BMP280;27783;42.782;23.274;2023-04-03T11:09:41;94677.63;;;13.14
42119;BMP280;27783;42.782;23.274;2023-04-03T11:15:17;94676.50;;;13.55
42119;BMP280;27783;42.782;23.274;2023-04-03T11:18:25;94682.56;;;13.55
42119;BMP280;27783;42.782;23.274;2023-04-03T11:21:19;94677.16;;;13.59
42119;BMP280;27783;42.782;23.274;2023-04-03T11:23:47;94676.09;;;13.56
42119;BMP280;27783;42.782;23.274;2023-04-03T11:26:16;94679.75;;;13.47
42119;BMP280;27783;42.782;23.274;2023-04-03T11:28:42;94671.50;;;13.17
42119;BMP280;27783;42.782;23.274;2023-04-03T11:36:50;94682.22;;;12.83
42119;BMP280;27783;42.782;23.274;2023-04-03T11:39:38;94687.25;;;12.62
42119;BMP280;27783;42.782;23.274;2023-04-03T11:42:37;94697.28;;;12.20
42119;BMP280;27783;42.782;23.274;2023-04-03T11:47:49;94687.94;;;12.16
42119;BMP280;27783;42.782;23.274;2023-04-03T12:00:47;94704.34;;;11.54
42119;BMP280;27783;42.782;23.274;2023-04-03T12:13:43;94712.59;;;11.15
42119;BMP280;27783;42.782;23.274;2023-04-03T12:16:32;94715.97;;;11.15
42119;BMP280;27783;42.782;23.274;2023-04-03T12:19:00;94710.06;;;11.08
42119;BMP280;27783;42.782;23.274;2023-04-03T12:29:14;94693.53;;;10.85
42119;BMP280;27783;42.782;23.274;2023-04-03T12:35:34;94689.56;;;10.74
42119;BMP280;27783;42.782;23.274;2023-04-03T12:43:31;94680.34;;;10.63
42119;BMP280;27783;42.782;23.274;2023-04-03T12:54:22;94674.06;;;10.31
42119;BMP280;27783;42.782;23.274;2023-04-03T12:56:49;94665.38;;;10.34
42119;BMP280;27783;42.782;23.274;2023-04-03T12:59:19;94669.06;;;10.40
42119;BMP280;27783;42.782;23.274;2023-04-03T13:01:57;94651.97;;;10.25
42119;BMP280;27783;42.782;23.274;2023-04-03T13:04:23;94657.59;;;10.27
42119;BMP280;27783;42.782;23.274;2023-04-03T13:06:48;94648.69;;;10.18
42119;BMP280;27783;42.782;23.274;2023-04-03T13:09:31;94663.41;;;10.16
42119;BMP280;27783;42.782;23.274;2023-04-03T13:12:10;94671.31;;;10.16
42119;BMP280;27783;42.782;23.274;2023-04-03T13:14:37;94665.63;;;10.20
42119;BMP280;27783;42.782;23.274;2023-04-03T13:17:14;94657.66;;;9.98
42119;BMP280;27783;42.782;23.274;2023-04-03T13:19:40;94655.78;;;9.99
42119;BMP280;27783;42.782;23.274;2023-04-03T13:22:28;94647.63;;;9.90
42119;BMP280;27783;42.782;23.274;2023-04-03T13:24:59;94657.78;;;9.88
42119;BMP280;27783;42.782;23.274;2023-04-03T13:27:30;94654.59;;;10.03
42119;BMP280;27783;42.782;23.274;2023-04-03T13:29:57;94659.00;;;9.83
42119;BMP280;27783;42.782;23.274;2023-04-03T13:32:25;94656.41;;;9.80
42119;BMP280;27783;42.782;23.274;2023-04-03T13:34:51;94648.13;;;9.82
42119;BMP280;27783;42.782;23.274;2023-04-03T13:40:14;94660.28;;;9.69
42119;BMP280;27783;42.782;23.274;2023-04-03T13:42:42;94662.63;;;9.64
42119;BMP280;27783;42.782;23.274;2023-04-03T13:47:41;94649.47;;;9.64
42119;BMP280;27783;42.782;23.274;2023-04-03T13:52:43;94645.47;;;9.52
42119;BMP280;27783;42.782;23.274;2023-04-03T13:55:30;94651.06;;;9.58
42119;BMP280;27783;42.782;23.274;2023-04-03T13:58:22;94646.69;;;9.48
42119;BMP280;27783;42.782;23.274;2023-04-03T14:01:37;94641.09;;;9.43
42119;BMP280;27783;42.782;23.274;2023-04-03T14:04:27;94632.81;;;9.44
42119;BMP280;27783;42.782;23.274;2023-04-03T14:06:55;94629.06;;;9.42
42119;BMP280;27783;42.782;23.274;2023-04-03T14:09:21;94634.00;;;9.40
42119;BMP280;27783;42.782;23.274;2023-04-03T14:11:52;94629.91;;;9.35
42119;BMP280;27783;42.782;23.274;2023-04-03T14:14:26;94631.91;;;9.28
42119;BMP280;27783;42.782;23.274;2023-04-03T14:16:57;94629.97;;;9.32
42119;BMP280;27783;42.782;23.274;2023-04-03T14:19:26;94620.22;;;9.29
42119;BMP280;27783;42.782;23.274;2023-04-03T14:21:54;94627.44;;;9.22
42119;BMP280;27783;42.782;23.274;2023-04-03T14:24:21;94621.78;;;9.27
42119;BMP280;27783;42.782;23.274;2023-04-03T14:26:48;94623.69;;;9.23
42119;BMP280;27783;42.782;23.274;2023-04-03T14:29:14;94613.63;;;9.18
42119;BMP280;27783;42.782;23.274;2023-04-03T14:31:56;94615.41;;;9.24
42119;BMP280;27783;42.782;23.274;2023-04-03T14:34:23;94615.84;;;9.19
42119;BMP280;27783;42.782;23.274;2023-04-03T14:36:51;94618.84;;;9.21
42119;BMP280;27783;42.782;23.274;2023-04-03T14:39:18;94617.69;;;9.22
42119;BMP280;27783;42.782;23.274;2023-04-03T14:41:45;94616.91;;;9.25
42119;BMP280;27783;42.782;23.274;2023-04-03T14:44:12;94609.50;;;9.17
42119;BMP280;27783;42.782;23.274;2023-04-03T14:46:40;94608.75;;;9.16
42119;BMP280;27783;42.782;23.274;2023-04-03T14:49:27;94612.50;;;9.15
42119;BMP280;27783;42.782;23.274;2023-04-03T14:51:56;94617.00;;;9.18
42119;BMP280;27783;42.782;23.274;2023-04-03T14:54:27;94613.59;;;9.21
42119;BMP280;27783;42.782;23.274;2023-04-03T14:56:59;94601.31;;;9.12
42119;BMP280;27783;42.782;23.274;2023-04-03T14:59:25;94601.63;;;9.17
42119;BMP280;27783;42.782;23.274;2023-04-03T15:01:51;94597.09;;;9.17
42119;BMP280;27783;42.782;23.274;2023-04-03T15:04:20;94598.22;;;9.16
42119;BMP280;27783;42.782;23.274;2023-04-03T15:06:46;94595.97;;;9.18
42119;BMP280;27783;42.782;23.274;2023-04-03T15:09:25;94604.28;;;9.14
42119;BMP280;27783;42.782;23.274;2023-04-03T15:11:54;94598.31;;;9.10
42119;BMP280;27783;42.782;23.274;2023-04-03T15:14:22;94597.59;;;9.06
42119;BMP280;27783;42.782;23.274;2023-04-03T15:16:48;94594.94;;;9.09
42119;BMP280;27783;42.782;23.274;2023-04-03T15:19:14;94599.84;;;9.07
42119;BMP280;27783;42.782;23.274;2023-04-03T15:21:46;94581.50;;;9.04
42119;BMP280;27783;42.782;23.274;2023-04-03T15:24:15;94584.88;;;9.04
42119;BMP280;27783;42.782;23.274;2023-04-03T15:26:41;94580.72;;;9.07
42119;BMP280;27783;42.782;23.274;2023-04-03T15:29:07;94579.25;;;9.02
42119;BMP280;27783;42.782;23.274;2023-04-03T15:31:37;94573.97;;;9.06
42119;BMP280;27783;42.782;23.274;2023-04-03T15:34:06;94574.00;;;9.02
42119;BMP280;27783;42.782;23.274;2023-04-03T15:39:06;94581.47;;;9.07
42119;BMP280;27783;42.782;23.274;2023-04-03T15:41:32;94575.50;;;9.03
42119;BMP280;27783;42.782;23.274;2023-04-03T15:43:57;94562.75;;;9.02
42119;BMP280;27783;42.782;23.274;2023-04-03T15:46:24;94564.66;;;9.01
42119;BMP280;27783;42.782;23.274;2023-04-03T15:48:53;94560.47;;;9.04
42119;BMP280;27783;42.782;23.274;2023-04-03T15:51:20;94552.97;;;9.02
42119;BMP280;27783;42.782;23.274;2023-04-03T15:53:48;94548.91;;;8.98
42119;BMP280;27783;42.782;23.274;2023-04-03T15:56:13;94546.66;;;8.97
42119;BMP280;27783;42.782;23.274;2023-04-03T15:58:40;94543.34;;;8.93
42119;BMP280;27783;42.782;23.274;2023-04-03T16:01:09;94541.13;;;8.91
42119;BMP280;27783;42.782;23.274;2023-04-03T16:03:36;94535.88;;;8.91
42119;BMP280;27783;42.782;23.274;2023-04-03T16:06:03;94544.13;;;8.90
42119;BMP280;27783;42.782;23.274;2023-04-03T16:08:35;94539.28;;;8.88
42119;BMP280;27783;42.782;23.274;2023-04-03T16:11:04;94543.75;;;8.91
42119;BMP280;27783;42.782;23.274;2023-04-03T16:13:32;94538.44;;;8.95
42119;BMP280;27783;42.782;23.274;2023-04-03T16:15:59;94544.50;;;8.92
42119;BMP280;27783;42.782;23.274;2023-04-03T16:18:26;94547.84;;;8.92
42119;BMP280;27783;42.782;23.274;2023-04-03T16:20:52;94538.84;;;8.93
42119;BMP280;27783;42.782;23.274;2023-04-03T16:23:20;94537.66;;;8.98
42119;BMP280;27783;42.782;23.274;2023-04-03T16:25:50;94538.09;;;8.93
42119;BMP280;27783;42.782;23.274;2023-04-03T16:28:17;94532.88;;;8.89
42119;BMP280;27783;42.782;23.274;2023-04-03T16:30:45;94518.69;;;8.83
42119;BMP280;27783;42.782;23.274;2023-04-03T16:33:13;94516.47;;;8.82
42119;BMP280;27783;42.782;23.274;2023-04-03T16:35:42;94518.25;;;8.88